Time;durP1;ratioP1;P1;durP2;ratioP2;P2;SDS_P1;SDS_P2;PMS_P1;PMS_P2;Temp;Humidity;BMP_temperature;BMP_pressure;BME280_temperature;BME280_humidity;BME280_pressure;Samples;Min_cycle;Max_cycle;Signal;HPM_P1;HPM_P2
2021/07/09 00:01:18;;;;;;;3.72;3.42;;;21.00;79.40;;;21.09;65.00;95064.28;5036812;28;20302;-82
2021/07/09 00:03:45;;;;;;;4.70;3.40;;;21.00;79.40;;;21.09;65.27;95077.59;5037657;28;20236;-82
2021/07/09 00:06:12;;;;;;;4.45;4.05;;;21.10;79.90;;;21.09;65.91;95090.94;5054212;28;20226;-83
2021/07/09 00:08:40;;;;;;;4.15;3.30;;;21.10;80.20;;;21.07;66.22;95107.22;5054462;28;20224;-83
2021/07/09 00:11:07;;;;;;;3.92;2.92;;;21.10;80.40;;;20.97;65.49;95116.97;5054394;28;20238;-83
2021/07/09 00:13:33;;;;;;;4.97;3.10;;;21.00;80.20;;;20.89;65.47;95132.38;5053890;28;20226;-83
2021/07/09 00:16:01;;;;;;;24.52;3.88;;;21.00;80.20;;;20.79;66.16;95182.94;5054610;28;20237;-81
2021/07/09 00:18:27;;;;;;;11.50;2.85;;;21.00;80.50;;;20.66;68.17;95225.91;5053741;28;20576;-80
2021/07/09 00:20:54;;;;;;;7.82;2.17;;;20.90;81.20;;;20.51;68.59;95256.66;5053813;28;20237;-80
2021/07/09 00:23:21;;;;;;;5.47;1.95;;;20.80;82.30;;;20.36;68.69;95256.44;5033591;28;20665;-82
2021/07/09 00:25:48;;;;;;;1.13;1.00;;;20.70;82.70;;;20.21;68.31;95212.53;5001204;28;20227;-82
2021/07/09 00:28:15;;;;;;;0.95;0.88;;;20.60;83.10;;;20.09;68.42;95115.97;5017555;28;20211;-82
2021/07/09 00:30:42;;;;;;;1.50;1.10;;;20.40;83.40;;;19.98;68.40;95061.78;5033890;28;20227;-82
2021/07/09 00:33:09;;;;;;;1.00;1.00;;;20.30;84.60;;;19.80;68.23;95037.06;5018328;28;20360;-82
2021/07/09 00:35:35;;;;;;;1.80;1.20;;;20.20;85.00;;;19.83;68.52;95095.16;5037270;28;20246;-82
2021/07/09 00:38:02;;;;;;;0.90;0.90;;;20.10;85.70;;;19.77;68.62;95114.72;5054371;28;20289;-82
2021/07/09 00:40:29;;;;;;;1.00;0.90;;;20.00;86.10;;;19.67;68.95;95090.63;5019722;28;20233;-83
2021/07/09 00:42:56;;;;;;;0.82;0.82;;;19.90;86.70;;;19.60;68.85;95044.78;5054194;28;20253;-84
2021/07/09 00:45:22;;;;;;;0.80;0.80;;;19.80;87.30;;;19.68;69.49;95026.53;5054353;28;20294;-83
2021/07/09 00:47:50;;;;;;;0.80;0.80;;;19.80;88.00;;;19.66;69.55;95012.69;5050253;28;20290;-82
2021/07/09 00:50:18;;;;;;;1.38;0.93;;;19.70;88.50;;;19.66;69.55;95010.00;5052530;28;20230;-84
2021/07/09 00:52:47;;;;;;;0.85;0.80;;;19.70;89.00;;;19.59;69.19;95019.22;5054428;28;20226;-84
2021/07/09 00:55:15;;;;;;;0.85;0.80;;;19.70;89.50;;;19.63;69.55;95036.31;5054636;28;20261;-85
2021/07/09 00:57:46;;;;;;;0.98;0.60;;;19.60;89.70;;;19.61;69.52;95063.13;5055199;28;20229;-85
2021/07/09 01:00:16;;;;;;;0.80;0.80;;;19.60;89.90;;;19.59;69.87;95065.25;5034123;28;20669;-84
2021/07/09 01:02:46;;;;;;;1.08;0.90;;;19.60;90.00;;;19.46;70.00;95081.56;5018088;28;20391;-84
2021/07/09 01:05:15;;;;;;;0.80;0.80;;;19.60;90.00;;;19.50;69.92;95149.97;5018020;28;20352;-84
2021/07/09 01:07:43;;;;;;;1.00;1.00;;;19.50;90.10;;;19.44;70.35;95174.09;5001566;28;20245;-83
2021/07/09 01:10:16;;;;;;;0.70;0.70;;;19.50;90.30;;;19.49;70.11;95131.59;5024564;28;20368;-84
2021/07/09 01:12:45;;;;;;;0.80;0.80;;;19.40;90.40;;;19.43;70.37;95113.97;5033816;28;20250;-83
2021/07/09 01:15:17;;;;;;;2.10;1.20;;;19.40;90.50;;;19.44;70.03;95097.75;5034188;28;20273;-84
2021/07/09 01:17:46;;;;;;;0.70;0.70;;;19.40;90.40;;;19.42;70.65;95089.22;5017990;28;20237;-84
2021/07/09 01:20:17;;;;;;;1.00;1.00;;;19.40;90.50;;;19.34;70.58;95065.69;5051848;28;20228;-83
2021/07/09 01:22:46;;;;;;;1.38;1.20;;;19.40;90.50;;;19.34;71.04;95076.31;5070454;28;20260;-84
2021/07/09 01:25:19;;;;;;;0.90;0.90;;;19.40;90.60;;;19.30;70.42;95035.31;5056593;28;20593;-84
2021/07/09 01:28:00;;;;;;;1.00;1.00;;;19.30;90.60;;;19.29;70.51;94973.34;5040660;28;20218;-84
2021/07/09 01:30:28;;;;;;;1.15;1.05;;;19.30;90.70;;;19.27;71.09;94940.06;5057758;28;20210;-84
2021/07/09 01:32:55;;;;;;;1.10;1.00;;;19.30;90.80;;;19.24;71.04;94943.19;5074026;28;20313;-84
2021/07/09 01:35:24;;;;;;;1.17;1.08;;;19.30;90.80;;;19.12;71.24;94928.16;5037040;28;20583;-84
2021/07/09 01:38:06;;;;;;;1.45;1.33;;;19.20;90.80;;;19.15;70.48;94945.47;5020685;28;20244;-84
2021/07/09 01:40:36;;;;;;;1.92;1.00;;;19.20;90.80;;;19.11;70.92;94941.72;5034136;28;20700;-84
2021/07/09 01:43:06;;;;;;;1.10;1.10;;;19.20;90.90;;;19.09;71.54;94960.56;5009107;28;20216;-84
2021/07/09 01:45:34;;;;;;;1.20;1.20;;;19.10;91.00;;;19.07;71.85;94970.63;5020906;28;20230;-83
2021/07/09 01:48:01;;;;;;;1.67;1.00;;;19.10;91.10;;;19.10;71.38;94985.28;5023532;28;20224;-84
2021/07/09 01:50:28;;;;;;;2.70;1.10;;;19.00;91.20;;;19.11;71.77;94994.88;5020592;28;20350;-84
2021/07/09 01:52:54;;;;;;;1.00;1.00;;;19.10;91.30;;;19.11;71.64;95000.19;5020325;28;20257;-84
2021/07/09 01:55:22;;;;;;;1.67;1.30;;;19.10;91.30;;;19.13;71.90;95000.78;5004203;28;20273;-84
2021/07/09 01:57:49;;;;;;;1.20;1.10;;;19.00;91.40;;;19.14;72.30;94975.78;5037088;28;20284;-85
2021/07/09 02:00:19;;;;;;;1.88;1.25;;;19.10;91.50;;;19.17;71.91;94965.44;5040133;28;20235;-83
2021/07/09 02:02:47;;;;;;;1.40;1.35;;;19.10;91.50;;;19.16;72.29;94947.91;5073446;28;20206;-84
2021/07/09 02:05:17;;;;;;;2.50;1.50;;;19.10;91.60;;;19.21;72.12;94941.84;5056403;28;20262;-84
2021/07/09 02:07:49;;;;;;;1.58;1.48;;;19.10;91.60;;;19.13;72.15;94947.59;5053115;28;20232;-84
2021/07/09 02:10:19;;;;;;;1.63;1.52;;;19.10;91.60;;;19.23;72.04;94974.31;5020082;28;20597;-84
2021/07/09 02:12:49;;;;;;;1.33;1.23;;;19.10;91.60;;;19.24;72.38;94962.63;5020065;28;20293;-82
2021/07/09 02:15:17;;;;;;;1.80;1.70;;;19.10;91.70;;;19.12;72.42;94953.97;5021693;28;20609;-83
2021/07/09 02:17:45;;;;;;;2.00;1.80;;;19.10;91.60;;;19.23;72.25;94976.19;5036392;28;20309;-83
2021/07/09 02:20:18;;;;;;;1.73;1.63;;;19.20;91.70;;;19.23;71.99;94979.63;5036163;28;20230;-83
2021/07/09 02:22:46;;;;;;;1.70;1.60;;;19.10;91.60;;;19.13;72.17;95001.56;5020061;28;20282;-82
2021/07/09 02:25:15;;;;;;;2.08;1.98;;;19.10;91.70;;;19.26;72.41;95034.19;5030744;28;20315;-84
2021/07/09 02:27:47;;;;;;;1.98;1.88;;;19.20;91.70;;;19.24;72.41;95055.69;5006365;28;20225;-84
2021/07/09 02:30:16;;;;;;;1.90;1.80;;;19.10;91.70;;;19.26;72.77;95044.81;5039575;28;20250;-83
2021/07/09 02:32:44;;;;;;;2.10;1.90;;;19.20;91.80;;;19.27;72.79;94998.56;5055870;28;20729;-81
2021/07/09 02:35:16;;;;;;;2.60;1.70;;;19.20;91.80;;;19.24;72.51;94949.34;5038899;28;20214;-81
2021/07/09 02:37:47;;;;;;;1.95;1.85;;;19.20;91.80;;;19.28;72.62;94915.88;5035689;28;20257;-83
2021/07/09 02:40:18;;;;;;;2.08;1.90;;;19.20;92.00;;;19.32;72.95;94910.88;5039953;28;20307;-83
2021/07/09 02:42:47;;;;;;;2.53;1.80;;;19.20;92.00;;;19.34;73.12;94922.06;5019874;28;20230;-85
2021/07/09 02:45:14;;;;;;;1.80;1.70;;;19.20;91.90;;;19.35;73.02;94937.78;5019987;28;20231;-84
2021/07/09 02:47:44;;;;;;;2.00;1.90;;;19.20;92.00;;;19.34;73.02;94948.66;5019848;28;20276;-84
2021/07/09 02:50:16;;;;;;;1.70;1.60;;;19.30;92.00;;;19.24;72.91;94922.75;5016757;28;20223;-85
2021/07/09 02:52:43;;;;;;;2.03;1.92;;;19.20;92.00;;;19.29;73.60;94914.81;5036391;28;20242;-85
2021/07/09 02:55:13;;;;;;;2.28;1.80;;;19.30;92.20;;;19.39;73.35;94910.69;5036674;28;20298;-83
2021/07/09 02:57:41;;;;;;;1.73;1.63;;;19.30;92.20;;;19.47;73.80;94907.59;5036402;28;20272;-84
2021/07/09 03:00:15;;;;;;;1.80;1.70;;;19.30;92.30;;;19.47;72.98;94919.03;5011846;28;20223;-83
2021/07/09 03:02:42;;;;;;;1.65;1.55;;;19.30;92.20;;;19.51;73.62;94911.38;5001535;28;20218;-84
2021/07/09 03:05:10;;;;;;;1.80;1.70;;;19.30;92.30;;;19.42;73.32;94897.72;5004781;28;20284;-83
2021/07/09 03:07:39;;;;;;;2.05;1.95;;;19.40;92.20;;;19.54;73.59;94916.19;5027260;28;20223;-84
2021/07/09 03:10:08;;;;;;;2.10;1.98;;;19.40;92.40;;;19.57;73.92;94917.56;5055341;28;20250;-83
2021/07/09 03:12:38;;;;;;;2.08;1.98;;;19.40;92.40;;;19.60;73.87;94911.75;5055344;28;20700;-84
2021/07/09 03:15:11;;;;;;;3.10;2.40;;;19.40;92.50;;;19.59;73.40;94881.69;5068210;28;20302;-84
2021/07/09 03:17:38;;;;;;;1.83;1.73;;;19.50;92.40;;;19.64;73.44;94867.59;5020519;28;20226;-83
2021/07/09 03:20:09;;;;;;;5.78;4.63;;;19.50;92.50;;;19.65;73.37;94871.88;5038699;28;20226;-83
2021/07/09 03:22:38;;;;;;;31.10;25.45;;;19.50;92.40;;;19.63;73.66;94858.03;5037957;28;20215;-83
2021/07/09 03:25:08;;;;;;;18.83;16.92;;;19.50;92.40;;;19.54;73.84;94844.34;5018451;28;20235;-83
2021/07/09 03:27:37;;;;;;;18.25;16.40;;;19.50;92.30;;;19.62;73.87;94843.91;5041571;28;20745;-83
2021/07/09 03:30:10;;;;;;;11.77;10.68;;;19.50;92.30;;;19.59;73.75;94852.41;5069597;28;20312;-83
2021/07/09 03:32:36;;;;;;;6.70;6.10;;;19.50;92.20;;;19.58;73.31;94865.94;5080190;28;20708;-82
2021/07/09 03:35:05;;;;;;;7.93;7.22;;;19.50;92.20;;;19.48;73.55;94859.47;5054470;28;20270;-82
2021/07/09 03:37:32;;;;;;;5.45;4.95;;;19.50;92.20;;;19.50;73.16;94880.50;5019886;28;20327;-83
2021/07/09 03:39:58;;;;;;;3.88;3.58;;;19.50;92.20;;;19.49;73.48;94889.53;5061916;28;20253;-83
2021/07/09 03:42:27;;;;;;;3.45;3.15;;;19.40;92.20;;;19.43;73.83;94872.72;5080010;28;20758;-83
2021/07/09 03:44:55;;;;;;;3.25;2.58;;;19.40;92.20;;;19.41;74.07;94864.19;5062197;28;20317;-83
2021/07/09 03:47:22;;;;;;;3.30;3.00;;;19.40;92.20;;;19.39;73.65;94868.16;5062984;28;20212;-82
2021/07/09 03:49:48;;;;;;;2.95;2.70;;;19.40;92.30;;;19.34;74.17;94872.34;5057577;28;20226;-82
2021/07/09 03:52:16;;;;;;;2.85;2.65;;;19.30;92.30;;;19.20;74.25;94861.28;5067172;28;20245;-83
2021/07/09 03:54:43;;;;;;;3.50;3.15;;;19.30;92.30;;;19.34;74.04;94893.59;5072570;28;20715;-83
2021/07/09 03:57:10;;;;;;;3.53;3.22;;;19.30;92.30;;;19.32;74.67;94894.91;5072867;28;20214;-85
2021/07/09 03:59:37;;;;;;;3.72;3.42;;;19.30;92.50;;;19.31;74.78;94885.31;5056115;28;20313;-85
2021/07/09 04:02:06;;;;;;;4.00;3.58;;;19.30;92.50;;;19.30;74.60;94889.06;5038884;28;20616;-86
2021/07/09 04:04:32;;;;;;;3.40;3.13;;;19.30;92.50;;;19.41;74.67;94903.25;5054139;28;20226;-86
2021/07/09 04:06:59;;;;;;;4.10;3.72;;;19.30;92.60;;;19.36;75.09;94890.72;5038429;28;20592;-86
2021/07/09 04:09:26;;;;;;;3.92;3.55;;;19.30;92.60;;;19.43;74.54;94887.88;5037990;28;20226;-85
2021/07/09 04:11:53;;;;;;;4.38;3.97;;;19.30;92.50;;;19.48;74.64;94890.56;5054723;28;20714;-85
2021/07/09 04:14:21;;;;;;;4.15;3.75;;;19.40;92.50;;;19.40;74.94;94888.38;5034489;28;20234;-85
2021/07/09 04:16:47;;;;;;;4.57;3.78;;;19.40;92.60;;;19.35;75.15;94884.59;5029578;28;20211;-84
2021/07/09 04:19:14;;;;;;;4.40;3.88;;;19.40;92.80;;;19.48;75.13;94903.88;5054898;28;20268;-85
2021/07/09 04:21:41;;;;;;;3.90;3.60;;;19.40;92.80;;;19.65;75.68;94922.44;5038248;28;20268;-84
2021/07/09 04:24:08;;;;;;;4.68;4.28;;;19.50;93.00;;;19.72;75.25;94927.56;5054443;28;20223;-86
2021/07/09 04:26:36;;;;;;;4.53;4.13;;;19.50;93.00;;;19.78;75.39;94924.72;5054694;28;20308;-85
2021/07/09 04:29:03;;;;;;;4.72;4.32;;;19.50;93.00;;;19.81;75.28;94921.56;5055094;28;20285;-84
2021/07/09 04:31:30;;;;;;;4.38;3.97;;;19.60;93.00;;;19.75;75.51;94897.78;5071072;28;20213;-85
2021/07/09 04:33:57;;;;;;;4.55;4.05;;;19.70;93.20;;;19.89;75.92;94899.03;5054712;28;20226;-84
2021/07/09 04:36:24;;;;;;;4.25;3.95;;;19.70;93.30;;;20.10;75.71;94917.88;5038341;28;20737;-85
2021/07/09 04:38:50;;;;;;;4.60;4.20;;;19.80;93.40;;;20.07;75.31;94902.44;5021850;28;20624;-85
2021/07/09 04:41:17;;;;;;;4.32;3.92;;;19.80;93.30;;;20.23;76.07;94914.03;5034680;28;20246;-85
2021/07/09 04:43:43;;;;;;;4.40;4.00;;;19.90;93.30;;;20.24;75.76;94902.31;5034706;28;20230;-84
2021/07/09 04:46:10;;;;;;;4.63;4.00;;;20.00;93.40;;;20.39;75.50;94929.06;5032227;28;20599;-84
2021/07/09 04:48:37;;;;;;;4.70;4.20;;;20.10;93.40;;;20.44;75.51;94938.97;5037592;28;20703;-84
2021/07/09 04:51:04;;;;;;;4.30;4.00;;;20.10;93.30;;;20.50;75.63;94935.28;5039180;28;20215;-85
2021/07/09 04:53:31;;;;;;;4.55;4.15;;;20.20;93.30;;;20.51;74.97;94926.25;5043990;28;20275;-83
2021/07/09 04:55:58;;;;;;;4.60;4.20;;;20.20;93.20;;;20.51;74.85;94939.56;5038650;28;20227;-85
2021/07/09 04:58:25;;;;;;;5.13;4.38;;;20.30;93.10;;;20.53;74.84;94948.13;5039126;28;20214;-85
2021/07/09 05:00:51;;;;;;;4.20;3.80;;;20.40;93.00;;;20.42;75.23;94933.06;5040979;28;20222;-83
2021/07/09 05:03:18;;;;;;;4.85;4.45;;;20.40;93.00;;;20.56;75.14;94949.47;5039609;28;20211;-82
2021/07/09 05:05:45;;;;;;;4.55;4.15;;;20.40;93.00;;;20.56;74.79;94960.13;5058962;28;20684;-82
2021/07/09 05:08:11;;;;;;;3.95;3.65;;;20.40;92.90;;;20.56;75.10;94958.25;5056666;28;20228;-82
2021/07/09 05:10:38;;;;;;;4.32;3.97;;;20.40;92.80;;;20.55;74.37;94963.84;5057146;28;20218;-82
2021/07/09 05:13:07;;;;;;;3.88;3.58;;;20.40;92.70;;;20.50;74.29;94958.47;5073530;28;20233;-82
2021/07/09 05:15:35;;;;;;;3.90;3.50;;;20.40;92.70;;;20.45;74.11;94968.00;5056646;28;20262;-84
2021/07/09 05:18:05;;;;;;;3.30;3.00;;;20.40;92.60;;;20.33;75.15;94950.59;5062320;28;20280;-82
2021/07/09 05:20:34;;;;;;;3.53;3.22;;;20.40;92.70;;;20.43;74.93;94972.00;5064514;28;20689;-82
2021/07/09 05:23:01;;;;;;;3.13;2.83;;;20.40;92.70;;;20.38;74.43;94986.06;5050934;28;20226;-82
2021/07/09 05:25:29;;;;;;;3.30;3.00;;;20.30;92.70;;;;;;5042903;28;20219;-83
2021/07/09 05:27:56;;;;;;;3.00;2.80;;;20.30;92.70;;;20.31;74.82;94996.09;5065386;28;20579;-82
2021/07/09 05:30:24;;;;;;;3.28;2.97;;;20.30;92.60;;;20.28;74.47;95002.75;5056866;28;20225;-82
2021/07/09 05:32:51;;;;;;;3.00;2.80;;;20.20;92.60;;;20.24;74.21;95004.31;5075507;28;20587;-82
2021/07/09 05:35:21;;;;;;;2.80;2.60;;;20.20;92.70;;;20.25;74.89;95007.75;5093156;28;20363;-81
2021/07/09 05:37:47;;;;;;;5.13;2.60;;;20.20;92.70;;;20.26;75.03;95004.88;5004552;28;20758;-82
2021/07/09 05:40:16;;;;;;;2.70;2.42;;;20.20;92.70;;;20.29;75.25;95011.56;5019548;28;20239;-82
2021/07/09 05:42:44;;;;;;;2.40;2.20;;;20.20;92.70;;;20.26;75.42;95010.19;5024256;28;20223;-81
2021/07/09 05:45:13;;;;;;;2.78;1.83;;;20.20;92.80;;;20.28;74.90;95001.94;5035953;28;20234;-81
2021/07/09 05:47:40;;;;;;;2.95;2.10;;;20.20;92.70;;;20.29;75.22;95003.56;5003555;28;20226;-81
2021/07/09 05:50:08;;;;;;;2.00;1.90;;;20.20;92.70;;;20.30;75.63;95015.84;5019632;28;20223;-82
2021/07/09 05:52:35;;;;;;;1.90;1.80;;;20.20;92.80;;;;;;5049603;28;20234;-81
2021/07/09 05:55:05;;;;;;;2.85;1.67;;;20.20;92.90;;;20.36;75.01;95036.13;5074090;28;20309;-82
2021/07/09 05:57:32;;;;;;;1.50;1.40;;;20.20;92.70;;;20.29;74.83;95001.69;5023125;28;20211;-82
2021/07/09 06:00:01;;;;;;;1.50;1.40;;;20.20;92.90;;;20.46;75.24;95011.47;5056282;28;20256;-82
2021/07/09 06:02:27;;;;;;;1.10;1.10;;;20.30;93.00;;;20.56;76.29;95002.75;5039490;28;20222;-81
2021/07/09 06:04:54;;;;;;;1.40;1.30;;;20.30;93.40;;;20.76;76.12;95018.97;5045939;28;20715;-81
2021/07/09 06:07:21;;;;;;;1.27;1.27;;;20.40;93.60;;;20.87;75.46;95017.19;5049572;28;20220;-82
2021/07/09 06:09:49;;;;;;;1.15;1.15;;;20.50;93.50;;;20.93;74.71;95026.03;5064528;28;20215;-82
2021/07/09 06:12:16;;;;;;;1.17;1.10;;;20.60;93.30;;;20.84;74.07;95015.03;5065063;28;20215;-82
2021/07/09 06:14:44;;;;;;;1.25;1.20;;;20.60;93.00;;;20.90;74.27;95026.53;5056363;28;20799;-83
2021/07/09 06:17:10;;;;;;;1.10;1.10;;;20.60;92.80;;;20.89;74.63;95035.59;5068257;28;20219;-82
2021/07/09 06:19:37;;;;;;;1.25;1.20;;;20.60;92.90;;;20.87;73.64;95043.03;5017447;28;20434;-81
2021/07/09 06:22:04;;;;;;;1.38;1.27;;;20.60;92.80;;;20.83;74.21;95037.41;5034011;28;20257;-82
2021/07/09 06:24:30;;;;;;;0.90;0.90;;;20.60;92.70;;;20.77;74.16;95033.88;5052204;28;20231;-82
2021/07/09 06:26:57;;;;;;;1.25;1.13;;;20.60;92.80;;;20.74;73.91;95037.06;5035396;28;20682;-81
2021/07/09 06:29:23;;;;;;;1.15;1.15;;;20.60;92.80;;;20.76;74.29;95034.97;5051226;28;20284;-83
2021/07/09 06:31:50;;;;;;;1.38;1.27;;;20.50;92.80;;;20.74;74.69;95034.41;5070786;28;20677;-83
2021/07/09 06:34:17;;;;;;;1.42;1.33;;;20.50;92.80;;;20.82;74.72;95035.00;5051120;28;20222;-82
2021/07/09 06:36:44;;;;;;;1.10;1.10;;;20.60;92.80;;;20.86;74.97;95022.75;5019502;28;20254;-81
2021/07/09 06:39:11;;;;;;;1.65;1.30;;;20.60;93.10;;;21.06;75.55;95019.47;5034562;28;20237;-82
2021/07/09 06:41:39;;;;;;;1.42;1.33;;;20.60;93.40;;;21.22;75.58;95028.38;5037861;28;20224;-81
2021/07/09 06:44:06;;;;;;;1.10;1.10;;;20.70;93.50;;;21.31;74.76;95045.50;5051259;28;20263;-82
2021/07/09 06:46:32;;;;;;;1.27;1.20;;;20.80;93.40;;;21.36;74.14;95036.72;5051840;28;20278;-82
2021/07/09 06:48:59;;;;;;;1.40;1.30;;;20.90;93.30;;;21.32;74.29;95015.09;5086877;28;20707;-81
2021/07/09 06:51:26;;;;;;;1.58;1.30;;;20.90;93.20;;;21.33;74.43;95023.91;5058931;28;20226;-83
2021/07/09 06:53:55;;;;;;;1.27;1.20;;;21.00;93.10;;;21.35;73.39;95027.94;5072441;28;20258;-81
2021/07/09 06:56:22;;;;;;;1.13;1.13;;;21.00;92.90;;;21.35;73.49;95043.13;5048961;28;20234;-81
2021/07/09 06:58:48;;;;;;;1.40;1.30;;;21.00;92.90;;;21.24;73.77;95018.28;5049574;28;20305;-81
2021/07/09 07:01:15;;;;;;;1.40;1.30;;;20.90;92.80;;;21.25;72.75;95041.19;5046452;28;20232;-81
2021/07/09 07:03:42;;;;;;;1.20;1.20;;;20.90;92.70;;;21.16;73.07;95022.19;5063119;28;20316;-81
2021/07/09 07:06:11;;;;;;;1.50;1.40;;;20.90;92.70;;;21.13;73.66;95033.38;5073593;28;20722;-81
2021/07/09 07:08:38;;;;;;;1.45;1.35;;;20.90;92.70;;;21.16;74.15;95026.75;5045546;28;20237;-81
2021/07/09 07:11:05;;;;;;;1.60;1.50;;;20.90;92.90;;;21.20;74.00;95028.66;5045856;28;20601;-81
2021/07/09 07:13:31;;;;;;;1.42;1.33;;;20.90;93.00;;;21.20;73.90;95014.50;5048132;28;20722;-81
2021/07/09 07:15:59;;;;;;;1.30;1.30;;;20.90;93.00;;;21.34;74.38;95017.53;5047309;28;20207;-80
2021/07/09 07:18:25;;;;;;;2.00;1.48;;;20.90;93.20;;;21.32;73.57;95027.66;5047439;28;20778;-81
2021/07/09 07:20:54;;;;;;;1.40;1.30;;;20.90;92.90;;;21.32;73.60;95020.44;5073489;28;20230;-80
2021/07/09 07:23:21;;;;;;;1.58;1.48;;;21.00;92.90;;;21.31;73.31;95029.50;5063488;28;20214;-81
2021/07/09 07:25:49;;;;;;;1.40;1.30;;;20.90;92.90;;;21.28;73.21;95030.03;5070151;28;20757;-81
2021/07/09 07:28:16;;;;;;;1.40;1.30;;;21.00;92.70;;;21.23;72.97;95022.00;5054048;28;20218;-81
2021/07/09 07:31:04;;;;;;;1.52;1.42;;;20.90;92.60;;;21.08;72.97;95010.16;5071270;28;20209;-80
2021/07/09 07:33:31;;;;;;;1.58;1.48;;;20.90;92.70;;;21.15;73.93;95019.78;5055927;28;20234;-82
2021/07/09 07:36:14;;;;;;;1.90;1.80;;;20.80;92.80;;;21.20;74.05;95011.81;5073224;28;20212;-81
2021/07/09 07:38:40;;;;;;;1.70;1.60;;;20.80;92.80;;;21.24;74.44;95008.38;5057145;28;20323;-81
2021/07/09 07:41:08;;;;;;;1.60;1.50;;;20.80;93.10;;;21.30;74.31;95013.75;5037365;28;20223;-80
2021/07/09 07:43:34;;;;;;;1.80;1.70;;;20.80;93.10;;;21.32;73.88;95022.31;5037056;28;20325;-81
2021/07/09 07:46:00;;;;;;;1.73;1.63;;;20.80;93.20;;;21.39;73.97;95025.56;5021252;28;20226;-81
2021/07/09 07:48:28;;;;;;;3.60;1.58;;;20.90;93.20;;;21.36;73.89;95002.03;5074449;28;20209;-80
2021/07/09 07:50:54;;;;;;;1.60;1.50;;;20.90;93.10;;;21.42;74.13;95014.34;5072002;28;20766;-79
2021/07/09 07:53:21;;;;;;;1.75;1.65;;;20.90;93.00;;;21.42;73.53;95025.03;5066597;28;20218;-81
2021/07/09 07:55:48;;;;;;;1.98;1.88;;;21.00;93.00;;;21.41;74.54;95026.91;5061257;28;20223;-80
2021/07/09 07:58:15;;;;;;;1.55;1.45;;;21.00;93.30;;;21.55;74.10;95024.56;5066782;28;20232;-80
2021/07/09 08:00:41;;;;;;;1.77;1.63;;;21.00;93.30;;;21.57;73.54;95043.06;5068997;28;20260;-79
2021/07/09 08:03:08;;;;;;;1.63;1.52;;;21.00;93.00;;;21.56;73.37;95041.41;5054797;28;20207;-80
2021/07/09 08:05:36;;;;;;;1.88;1.77;;;21.10;92.90;;;21.54;73.35;95035.50;5070645;28;20249;-80
2021/07/09 08:08:06;;;;;;;1.60;1.50;;;21.10;92.90;;;21.60;73.44;95050.53;5054097;28;20243;-80
2021/07/09 08:10:32;;;;;;;1.60;1.50;;;21.10;92.90;;;21.67;74.08;95052.97;5052814;28;20315;-79
2021/07/09 08:13:00;;;;;;;1.67;1.58;;;21.10;93.10;;;21.74;73.74;95043.66;5046267;28;20219;-79
2021/07/09 08:15:26;;;;;;;4.10;1.75;;;21.20;93.20;;;21.86;74.24;95048.00;5032277;28;20254;-81
2021/07/09 08:17:53;;;;;;;1.50;1.40;;;21.20;93.40;;;21.98;74.51;95048.56;5016468;28;20222;-81
2021/07/09 08:20:20;;;;;;;1.80;1.70;;;21.30;93.40;;;22.05;74.11;95022.44;5017177;28;20240;-80
2021/07/09 08:22:47;;;;;;;1.70;1.60;;;21.40;93.40;;;22.19;73.90;95051.31;5017085;28;20217;-80
2021/07/09 08:25:16;;;;;;;1.70;1.60;;;21.40;93.50;;;22.36;74.02;95045.78;5015566;28;20263;-80
2021/07/09 08:27:43;;;;;;;1.95;1.85;;;21.60;93.60;;;22.57;74.34;95038.66;5028722;28;20204;-80
2021/07/09 08:30:11;;;;;;;1.50;1.45;;;21.70;93.90;;;22.80;73.97;95042.69;5052626;28;20218;-80
2021/07/09 08:32:38;;;;;;;2.35;1.70;;;21.80;94.00;;;23.00;72.55;95070.53;5053689;28;20222;-80
2021/07/09 08:35:06;;;;;;;1.52;1.42;;;22.00;93.80;;;23.06;72.00;95057.94;5052956;28;20282;-80
2021/07/09 08:37:49;;;;;;;1.60;1.50;;;22.10;93.30;;;23.05;71.35;95051.00;5045901;28;20701;-81
2021/07/09 08:40:16;;;;;;;1.70;1.60;;;22.20;93.20;;;22.97;70.70;95057.69;5016110;28;20231;-80
2021/07/09 08:42:44;;;;;;;1.48;1.38;;;22.30;92.70;;;22.93;70.72;95068.09;5000274;28;20318;-81
2021/07/09 08:45:11;;;;;;;1.60;1.50;;;22.30;92.60;;;22.85;70.87;95072.13;4981766;28;20236;-81
2021/07/09 08:47:38;;;;;;;1.17;1.17;;;22.30;92.50;;;22.83;71.58;95081.47;5019112;28;20928;-80
2021/07/09 08:50:07;;;;;;;1.42;1.33;;;22.20;92.50;;;22.79;71.46;95067.84;5031031;28;20640;-79
2021/07/09 08:52:36;;;;;;;1.70;1.60;;;22.20;92.50;;;22.82;71.53;95077.97;5031691;28;20266;-80
2021/07/09 08:55:11;;;;;;;1.70;1.60;;;22.20;92.60;;;22.88;72.42;95072.66;5032948;28;20684;-80
2021/07/09 08:57:44;;;;;;;1.70;1.60;;;22.30;92.60;;;22.96;72.88;95072.13;5001183;28;20606;-80
2021/07/09 09:00:32;;;;;;;1.60;1.40;;;22.30;92.70;;;23.00;71.84;95076.66;5033644;28;20233;-81
2021/07/09 09:03:01;;;;;;;1.60;1.50;;;22.30;92.50;;;23.07;72.33;95078.28;5017899;28;20266;-79
2021/07/09 09:05:29;;;;;;;1.70;1.60;;;22.30;92.90;;;23.05;71.11;95080.44;5011767;28;20711;-79
2021/07/09 09:08:07;;;;;;;1.45;1.35;;;22.30;92.40;;;23.00;70.68;95076.66;5013569;28;20226;-79
2021/07/09 09:10:42;;;;;;;1.67;1.58;;;22.30;92.00;;;22.98;70.19;95086.03;5030825;28;20238;-81
2021/07/09 09:13:17;;;;;;;1.58;1.48;;;22.30;92.20;;;22.95;69.99;95076.69;5031757;28;20389;-80
2021/07/09 09:15:58;;;;;;;1.60;1.50;;;22.30;92.20;;;22.95;70.58;95078.53;5044175;28;20234;-81
2021/07/09 09:18:37;;;;;;;1.63;1.52;;;22.30;92.10;;;23.00;70.57;95092.72;5046549;28;20408;-81
2021/07/09 09:21:20;;;;;;;1.40;1.40;;;22.40;92.10;;;22.97;70.16;95089.78;5025941;28;20223;-80
2021/07/09 09:23:52;;;;;;;1.65;1.55;;;22.40;91.60;;;22.96;70.66;95093.50;4995802;28;20215;-81
2021/07/09 09:26:53;;;;;;;1.80;1.70;;;22.40;91.70;;;22.96;71.36;95082.81;5009385;28;20297;-81
2021/07/09 09:29:25;;;;;;;3.65;1.55;;;22.40;91.90;;;22.97;71.15;95079.06;5016602;28;20235;-82
2021/07/09 09:32:02;;;;;;;1.65;1.55;;;22.40;91.50;;;22.94;70.87;95091.13;5006316;28;20736;-80
2021/07/09 09:34:45;;;;;;;1.98;1.88;;;22.40;91.40;;;22.92;70.73;95097.78;4981059;28;20698;-80
2021/07/09 09:37:19;;;;;;;1.90;1.80;;;22.40;91.40;;;22.85;70.93;95104.22;4997017;28;20220;-81
2021/07/09 09:39:48;;;;;;;1.90;1.80;;;22.40;91.50;;;22.85;71.14;95106.06;5013422;28;20228;-81
2021/07/09 09:42:21;;;;;;;2.03;1.92;;;22.40;91.40;;;22.86;71.56;95100.47;5013293;28;20203;-81
2021/07/09 09:45:00;;;;;;;1.85;1.75;;;22.40;91.50;;;22.95;71.65;95092.72;4997345;28;20610;-81
2021/07/09 09:47:35;;;;;;;1.98;1.88;;;22.40;91.50;;;23.14;72.17;95097.53;4983989;28;20223;-81
2021/07/09 09:50:07;;;;;;;2.53;2.15;;;22.50;91.50;;;23.28;70.07;95092.50;5000297;28;20720;-81
2021/07/09 09:52:42;;;;;;;2.20;2.10;;;22.60;91.20;;;23.37;70.63;95080.19;5000099;28;20249;-81
2021/07/09 09:55:15;;;;;;;1.92;1.83;;;22.70;91.20;;;23.37;68.94;95072.16;5016481;28;20215;-81
2021/07/09 09:57:43;;;;;;;2.00;1.90;;;22.70;90.60;;;23.43;68.19;95078.31;5000337;28;20212;-82
2021/07/09 10:00:29;;;;;;;1.95;1.83;;;22.80;90.50;;;23.45;68.74;95076.19;5000086;28;20358;-81
2021/07/09 10:03:16;;;;;;;2.00;1.90;;;22.90;90.40;;;23.59;68.78;95079.09;5003664;28;20257;-80
2021/07/09 10:05:45;;;;;;;2.00;1.90;;;23.00;90.60;;;23.72;69.34;95075.84;5015863;28;20270;-81
2021/07/09 10:08:20;;;;;;;1.90;1.80;;;23.00;90.80;;;23.77;67.75;95089.22;5016202;28;20594;-81
2021/07/09 10:10:49;;;;;;;1.90;1.80;;;23.10;90.10;;;23.74;67.77;95081.75;5028241;28;20322;-81
2021/07/09 10:13:19;;;;;;;1.90;1.80;;;23.20;89.90;;;23.83;69.08;95082.78;5019628;28;21029;-81
2021/07/09 10:15:51;;;;;;;1.98;1.88;;;23.20;90.10;;;23.87;68.15;95090.28;5035394;28;20231;-82
2021/07/09 10:18:20;;;;;;;1.60;1.50;;;23.30;90.10;;;23.94;67.68;95085.50;5020061;28;20563;-82
2021/07/09 10:20:49;;;;;;;1.55;1.45;;;23.40;89.30;;;24.04;68.13;95092.69;5022630;28;20250;-81
2021/07/09 10:23:19;;;;;;;1.33;1.33;;;23.40;90.10;;;24.15;68.32;95096.94;5005727;28;20218;-82
2021/07/09 10:25:48;;;;;;;1.52;1.42;;;23.50;89.70;;;24.23;67.33;95098.25;5035549;28;20230;-81
2021/07/09 10:28:23;;;;;;;2.05;1.20;;;23.60;88.40;;;24.28;66.31;95096.34;5015382;28;20227;-80